sensor_id;sensor_type;location;lat;lon;timestamp;pressure;altitude;pressure_sealevel;temperature;humidity
58662;BME280;44432;49.786;22.760;2022-11-02T00:01:57;99636.56;;;11.69;80.00
58662;BME280;44432;49.786;22.760;2022-11-02T00:04:28;99642.50;;;11.70;80.03
58662;BME280;44432;49.786;22.760;2022-11-02T00:06:58;99640.30;;;11.71;80.05
58662;BME280;44432;49.786;22.760;2022-11-02T00:09:29;99636.92;;;11.71;79.95
58662;BME280;44432;49.786;22.760;2022-11-02T00:11:59;99640.66;;;11.72;79.94
58662;BME280;44432;49.786;22.760;2022-11-02T00:14:30;99640.33;;;11.73;79.97
58662;BME280;44432;49.786;22.760;2022-11-02T00:17:00;99641.26;;;11.75;79.99
58662;BME280;44432;49.786;22.760;2022-11-02T00:19:31;99638.95;;;11.76;79.87
58662;BME280;44432;49.786;22.760;2022-11-02T00:22:02;99639.81;;;11.78;79.89
58662;BME280;44432;49.786;22.760;2022-11-02T00:24:33;99640.16;;;11.81;79.87
58662;BME280;44432;49.786;22.760;2022-11-02T00:27:04;99639.09;;;11.85;79.82
58662;BME280;44432;49.786;22.760;2022-11-02T00:29:35;99638.98;;;11.88;79.70
58662;BME280;44432;49.786;22.760;2022-11-02T00:32:06;99635.48;;;11.89;79.49
58662;BME280;44432;49.786;22.760;2022-11-02T00:34:36;99641.89;;;11.94;79.60
58662;BME280;44432;49.786;22.760;2022-11-02T00:37:07;99637.96;;;11.97;79.42
58662;BME280;44432;49.786;22.760;2022-11-02T00:39:37;99633.06;;;11.99;79.34
58662;BME280;44432;49.786;22.760;2022-11-02T00:42:08;99632.07;;;12.01;79.37
58662;BME280;44432;49.786;22.760;2022-11-02T00:44:39;99632.84;;;12.03;79.15
58662;BME280;44432;49.786;22.760;2022-11-02T00:47:09;99628.30;;;12.05;79.07
58662;BME280;44432;49.786;22.760;2022-11-02T00:49:40;99627.15;;;12.07;79.01
58662;BME280;44432;49.786;22.760;2022-11-02T00:52:11;99625.83;;;12.09;79.02
58662;BME280;44432;49.786;22.760;2022-11-02T00:54:41;99624.04;;;12.10;78.96
58662;BME280;44432;49.786;22.760;2022-11-02T00:57:12;99624.71;;;12.12;78.87
58662;BME280;44432;49.786;22.760;2022-11-02T00:59:42;99627.64;;;12.14;78.68
58662;BME280;44432;49.786;22.760;2022-11-02T01:02:13;99626.53;;;12.16;78.83
58662;BME280;44432;49.786;22.760;2022-11-02T01:04:43;99624.27;;;12.16;78.73
58662;BME280;44432;49.786;22.760;2022-11-02T01:07:14;99626.96;;;12.17;78.75
58662;BME280;44432;49.786;22.760;2022-11-02T01:09:44;99623.86;;;12.18;78.60
58662;BME280;44432;49.786;22.760;2022-11-02T01:12:15;99626.95;;;12.19;78.37
58662;BME280;44432;49.786;22.760;2022-11-02T01:14:46;99623.98;;;12.20;78.45
58662;BME280;44432;49.786;22.760;2022-11-02T01:17:17;99622.14;;;12.20;78.44
58662;BME280;44432;49.786;22.760;2022-11-02T01:19:50;99619.24;;;12.21;78.44
58662;BME280;44432;49.786;22.760;2022-11-02T01:22:20;99621.02;;;12.22;78.49
58662;BME280;44432;49.786;22.760;2022-11-02T01:24:51;99614.39;;;12.22;78.33
58662;BME280;44432;49.786;22.760;2022-11-02T01:27:21;99616.33;;;12.24;78.35
58662;BME280;44432;49.786;22.760;2022-11-02T01:29:52;99614.25;;;12.24;78.46
58662;BME280;44432;49.786;22.760;2022-11-02T01:32:22;99614.77;;;12.25;78.30
58662;BME280;44432;49.786;22.760;2022-11-02T01:34:53;99614.08;;;12.25;78.24
58662;BME280;44432;49.786;22.760;2022-11-02T01:37:23;99612.61;;;12.25;78.40
58662;BME280;44432;49.786;22.760;2022-11-02T01:39:54;99612.48;;;12.26;78.54
58662;BME280;44432;49.786;22.760;2022-11-02T01:42:25;99608.95;;;12.26;78.24
58662;BME280;44432;49.786;22.760;2022-11-02T01:44:57;99610.41;;;12.26;78.37
58662;BME280;44432;49.786;22.760;2022-11-02T01:47:30;99605.85;;;12.26;78.31
58662;BME280;44432;49.786;22.760;2022-11-02T01:50:05;99605.00;;;12.25;78.27
58662;BME280;44432;49.786;22.760;2022-11-02T01:52:38;99607.32;;;12.25;78.22
58662;BME280;44432;49.786;22.760;2022-11-02T01:55:12;99603.69;;;12.26;78.36
58662;BME280;44432;49.786;22.760;2022-11-02T01:57:46;99606.17;;;12.26;78.35
58662;BME280;44432;49.786;22.760;2022-11-02T02:00:18;99605.69;;;12.25;78.37
58662;BME280;44432;49.786;22.760;2022-11-02T02:02:53;99607.11;;;12.25;78.24
58662;BME280;44432;49.786;22.760;2022-11-02T02:05:25;99609.64;;;12.26;78.35
58662;BME280;44432;49.786;22.760;2022-11-02T02:07:57;99611.75;;;12.26;78.39
58662;BME280;44432;49.786;22.760;2022-11-02T02:10:28;99608.90;;;12.26;78.28
58662;BME280;44432;49.786;22.760;2022-11-02T02:12:58;99611.27;;;12.27;78.48
58662;BME280;44432;49.786;22.760;2022-11-02T02:15:38;99612.55;;;12.28;78.29
58662;BME280;44432;49.786;22.760;2022-11-02T02:18:15;99609.36;;;12.28;78.29
58662;BME280;44432;49.786;22.760;2022-11-02T02:20:59;99609.87;;;12.27;78.24
58662;BME280;44432;49.786;22.760;2022-11-02T02:23:53;99611.69;;;12.28;78.36
58662;BME280;44432;49.786;22.760;2022-11-02T02:26:43;99608.73;;;12.28;78.61
58662;BME280;44432;49.786;22.760;2022-11-02T02:29:20;99609.66;;;12.27;78.38
58662;BME280;44432;49.786;22.760;2022-11-02T02:31:56;99604.69;;;12.27;78.49
58662;BME280;44432;49.786;22.760;2022-11-02T02:34:33;99603.31;;;12.27;78.57
58662;BME280;44432;49.786;22.760;2022-11-02T02:37:09;99606.61;;;12.28;78.35
58662;BME280;44432;49.786;22.760;2022-11-02T02:39:48;99605.09;;;12.28;78.47
58662;BME280;44432;49.786;22.760;2022-11-02T02:42:24;99606.92;;;12.29;78.56
58662;BME280;44432;49.786;22.760;2022-11-02T02:45:02;99607.12;;;12.30;78.47
58662;BME280;44432;49.786;22.760;2022-11-02T02:47:35;99604.42;;;12.31;78.38
58662;BME280;44432;49.786;22.760;2022-11-02T02:50:12;99602.05;;;12.27;78.56
58662;BME280;44432;49.786;22.760;2022-11-02T02:52:47;99610.20;;;12.32;78.48
58662;BME280;44432;49.786;22.760;2022-11-02T02:55:23;99613.83;;;12.33;78.56
58662;BME280;44432;49.786;22.760;2022-11-02T02:57:56;99616.23;;;12.33;78.65
58662;BME280;44432;49.786;22.760;2022-11-02T03:00:27;99616.05;;;12.35;78.63
58662;BME280;44432;49.786;22.760;2022-11-02T03:03:01;99621.73;;;12.35;78.58
58662;BME280;44432;49.786;22.760;2022-11-02T03:05:34;99623.60;;;12.37;78.68
58662;BME280;44432;49.786;22.760;2022-11-02T03:08:08;99621.33;;;12.37;78.52
58662;BME280;44432;49.786;22.760;2022-11-02T03:10:43;99619.05;;;12.37;78.70
58662;BME280;44432;49.786;22.760;2022-11-02T03:13:32;99621.84;;;12.38;78.74
58662;BME280;44432;49.786;22.760;2022-11-02T03:16:09;99625.42;;;12.39;78.71
58662;BME280;44432;49.786;22.760;2022-11-02T03:18:47;99626.55;;;12.40;78.76
58662;BME280;44432;49.786;22.760;2022-11-02T03:21:27;99632.05;;;12.41;78.70
58662;BME280;44432;49.786;22.760;2022-11-02T03:24:07;99629.19;;;12.41;78.79
58662;BME280;44432;49.786;22.760;2022-11-02T03:26:45;99630.16;;;12.42;78.73
58662;BME280;44432;49.786;22.760;2022-11-02T03:29:20;99622.38;;;12.43;78.71
58662;BME280;44432;49.786;22.760;2022-11-02T03:31:56;99627.63;;;12.44;78.80
58662;BME280;44432;49.786;22.760;2022-11-02T03:34:33;99630.31;;;12.45;78.93
58662;BME280;44432;49.786;22.760;2022-11-02T03:37:12;99625.38;;;12.45;78.88
58662;BME280;44432;49.786;22.760;2022-11-02T03:39:48;99625.71;;;12.45;78.95
58662;BME280;44432;49.786;22.760;2022-11-02T03:42:22;99629.52;;;12.45;79.07
58662;BME280;44432;49.786;22.760;2022-11-02T03:44:57;99627.93;;;12.47;79.01
58662;BME280;44432;49.786;22.760;2022-11-02T03:47:30;99631.34;;;12.48;78.93
58662;BME280;44432;49.786;22.760;2022-11-02T03:50:05;99633.48;;;12.49;79.05
58662;BME280;44432;49.786;22.760;2022-11-02T03:52:38;99633.25;;;12.50;79.09
58662;BME280;44432;49.786;22.760;2022-11-02T03:55:13;99635.84;;;12.52;79.22
58662;BME280;44432;49.786;22.760;2022-11-02T03:57:49;99633.50;;;12.53;79.30
58662;BME280;44432;49.786;22.760;2022-11-02T04:00:22;99634.02;;;12.55;79.38
58662;BME280;44432;49.786;22.760;2022-11-02T04:02:55;99634.27;;;12.55;79.25
58662;BME280;44432;49.786;22.760;2022-11-02T04:05:31;99636.42;;;12.56;79.22
58662;BME280;44432;49.786;22.760;2022-11-02T04:08:02;99638.04;;;12.57;79.31
58662;BME280;44432;49.786;22.760;2022-11-02T04:10:53;99639.38;;;12.58;79.46
58662;BME280;44432;49.786;22.760;2022-11-02T04:13:41;99637.70;;;12.59;79.62
58662;BME280;44432;49.786;22.760;2022-11-02T04:16:30;99639.61;;;12.60;79.48
58662;BME280;44432;49.786;22.760;2022-11-02T04:19:00;99642.81;;;12.61;79.61
58662;BME280;44432;49.786;22.760;2022-11-02T04:21:50;99633.61;;;12.61;79.51
58662;BME280;44432;49.786;22.760;2022-11-02T04:24:38;99636.61;;;12.62;79.54
58662;BME280;44432;49.786;22.760;2022-11-02T04:27:26;99633.84;;;12.63;79.62
58662;BME280;44432;49.786;22.760;2022-11-02T04:29:57;99636.20;;;12.64;79.58
58662;BME280;44432;49.786;22.760;2022-11-02T04:32:28;99641.48;;;12.64;79.47
58662;BME280;44432;49.786;22.760;2022-11-02T04:35:16;99645.64;;;12.65;79.63
58662;BME280;44432;49.786;22.760;2022-11-02T04:37:46;99643.15;;;12.65;79.50
58662;BME280;44432;49.786;22.760;2022-11-02T04:40:35;99644.46;;;12.64;79.39
58662;BME280;44432;49.786;22.760;2022-11-02T04:43:05;99643.45;;;12.64;79.35
58662;BME280;44432;49.786;22.760;2022-11-02T04:45:36;99644.46;;;12.64;79.54
58662;BME280;44432;49.786;22.760;2022-11-02T04:48:08;99647.65;;;12.64;79.58
58662;BME280;44432;49.786;22.760;2022-11-02T04:50:39;99652.20;;;12.65;79.50
58662;BME280;44432;49.786;22.760;2022-11-02T04:53:09;99650.61;;;12.64;79.58
58662;BME280;44432;49.786;22.760;2022-11-02T04:55:40;99652.41;;;12.64;79.50
58662;BME280;44432;49.786;22.760;2022-11-02T04:58:10;99651.88;;;12.64;79.63
58662;BME280;44432;49.786;22.760;2022-11-02T05:00:41;99651.95;;;12.65;79.65
58662;BME280;44432;49.786;22.760;2022-11-02T05:03:11;99653.06;;;12.65;79.64
58662;BME280;44432;49.786;22.760;2022-11-02T05:05:42;99656.88;;;12.65;79.56
58662;BME280;44432;49.786;22.760;2022-11-02T05:08:12;99659.78;;;12.65;79.59
58662;BME280;44432;49.786;22.760;2022-11-02T05:10:43;99662.27;;;12.64;79.62
58662;BME280;44432;49.786;22.760;2022-11-02T05:13:13;99659.98;;;12.64;79.75
58662;BME280;44432;49.786;22.760;2022-11-02T05:15:44;99663.61;;;12.65;79.69
58662;BME280;44432;49.786;22.760;2022-11-02T05:18:15;99659.77;;;12.65;79.92
58662;BME280;44432;49.786;22.760;2022-11-02T05:20:50;99661.23;;;12.67;79.77
58662;BME280;44432;49.786;22.760;2022-11-02T05:23:21;99664.73;;;12.68;79.85
58662;BME280;44432;49.786;22.760;2022-11-02T05:25:57;99663.14;;;12.68;79.94
58662;BME280;44432;49.786;22.760;2022-11-02T05:28:28;99668.37;;;12.71;80.06
58662;BME280;44432;49.786;22.760;2022-11-02T05:31:00;99673.73;;;12.72;80.02
58662;BME280;44432;49.786;22.760;2022-11-02T05:33:31;99676.14;;;12.72;80.09
58662;BME280;44432;49.786;22.760;2022-11-02T05:36:03;99677.15;;;12.73;80.22
58662;BME280;44432;49.786;22.760;2022-11-02T05:38:34;99681.34;;;12.74;80.27
58662;BME280;44432;49.786;22.760;2022-11-02T05:41:04;99681.97;;;12.77;80.24
58662;BME280;44432;49.786;22.760;2022-11-02T05:43:35;99679.17;;;12.80;80.19
58662;BME280;44432;49.786;22.760;2022-11-02T05:46:05;99686.52;;;12.85;80.30
58662;BME280;44432;49.786;22.760;2022-11-02T05:48:36;99690.63;;;12.90;80.13
58662;BME280;44432;49.786;22.760;2022-11-02T05:51:08;99686.14;;;12.94;80.23
58662;BME280;44432;49.786;22.760;2022-11-02T05:53:38;99692.77;;;13.01;80.17
58662;BME280;44432;49.786;22.760;2022-11-02T05:56:10;99697.20;;;13.07;80.07
58662;BME280;44432;49.786;22.760;2022-11-02T05:58:41;99700.29;;;13.13;80.07
58662;BME280;44432;49.786;22.760;2022-11-02T06:01:12;99699.70;;;13.17;79.88
58662;BME280;44432;49.786;22.760;2022-11-02T06:03:42;99704.33;;;13.20;79.89
58662;BME280;44432;49.786;22.760;2022-11-02T06:06:13;99705.19;;;13.24;79.74
58662;BME280;44432;49.786;22.760;2022-11-02T06:08:43;99708.83;;;13.27;79.77
58662;BME280;44432;49.786;22.760;2022-11-02T06:11:14;99711.48;;;13.27;79.64
58662;BME280;44432;49.786;22.760;2022-11-02T06:13:47;99715.07;;;13.28;79.66
58662;BME280;44432;49.786;22.760;2022-11-02T06:16:18;99720.46;;;13.31;79.70
58662;BME280;44432;49.786;22.760;2022-11-02T06:18:49;99726.53;;;13.32;79.59
58662;BME280;44432;49.786;22.760;2022-11-02T06:21:19;99729.02;;;13.32;79.63
58662;BME280;44432;49.786;22.760;2022-11-02T06:23:50;99730.65;;;13.32;79.59
58662;BME280;44432;49.786;22.760;2022-11-02T06:26:21;99734.62;;;13.31;79.62
58662;BME280;44432;49.786;22.760;2022-11-02T06:28:51;99734.11;;;13.30;79.60
58662;BME280;44432;49.786;22.760;2022-11-02T06:31:22;99737.14;;;13.27;79.64
58662;BME280;44432;49.786;22.760;2022-11-02T06:33:53;99731.55;;;13.28;79.60
58662;BME280;44432;49.786;22.760;2022-11-02T06:36:23;99729.99;;;13.27;79.65
58662;BME280;44432;49.786;22.760;2022-11-02T06:38:54;99733.33;;;13.29;79.68
58662;BME280;44432;49.786;22.760;2022-11-02T06:41:24;99738.79;;;13.30;79.63
58662;BME280;44432;49.786;22.760;2022-11-02T06:43:55;99741.59;;;13.32;79.74
58662;BME280;44432;49.786;22.760;2022-11-02T06:46:26;99743.95;;;13.32;79.64
58662;BME280;44432;49.786;22.760;2022-11-02T06:48:56;99747.27;;;13.35;79.78
58662;BME280;44432;49.786;22.760;2022-11-02T06:51:27;99744.81;;;13.35;79.72
58662;BME280;44432;49.786;22.760;2022-11-02T06:53:57;99756.18;;;13.37;79.58
58662;BME280;44432;49.786;22.760;2022-11-02T06:56:28;99757.55;;;13.39;79.64
58662;BME280;44432;49.786;22.760;2022-11-02T06:58:58;99758.52;;;13.39;79.56
58662;BME280;44432;49.786;22.760;2022-11-02T07:01:29;99764.25;;;13.39;79.55
58662;BME280;44432;49.786;22.760;2022-11-02T07:03:59;99765.50;;;13.40;79.61
58662;BME280;44432;49.786;22.760;2022-11-02T07:06:30;99764.10;;;13.41;79.49
58662;BME280;44432;49.786;22.760;2022-11-02T07:09:01;99764.98;;;13.44;79.49
58662;BME280;44432;49.786;22.760;2022-11-02T07:11:31;99766.21;;;13.46;79.46
58662;BME280;44432;49.786;22.760;2022-11-02T07:14:02;99763.20;;;13.50;79.43
58662;BME280;44432;49.786;22.760;2022-11-02T07:16:32;99762.98;;;13.52;79.32
58662;BME280;44432;49.786;22.760;2022-11-02T07:19:03;99767.02;;;13.58;79.25
58662;BME280;44432;49.786;22.760;2022-11-02T07:21:33;99765.52;;;13.63;79.11
58662;BME280;44432;49.786;22.760;2022-11-02T07:24:05;99766.95;;;13.68;79.12
58662;BME280;44432;49.786;22.760;2022-11-02T07:26:35;99766.09;;;13.75;79.07
58662;BME280;44432;49.786;22.760;2022-11-02T07:29:06;99767.77;;;13.83;78.93
58662;BME280;44432;49.786;22.760;2022-11-02T07:31:37;99757.80;;;13.89;78.68
58662;BME280;44432;49.786;22.760;2022-11-02T07:34:07;99755.60;;;14.00;78.62
58662;BME280;44432;49.786;22.760;2022-11-02T07:36:38;99752.03;;;14.11;78.53
58662;BME280;44432;49.786;22.760;2022-11-02T07:39:09;99751.61;;;14.21;78.33
58662;BME280;44432;49.786;22.760;2022-11-02T07:41:40;99750.05;;;14.31;78.14
58662;BME280;44432;49.786;22.760;2022-11-02T07:44:10;99751.37;;;14.44;77.98
58662;BME280;44432;49.786;22.760;2022-11-02T07:46:41;99751.19;;;14.56;77.70
58662;BME280;44432;49.786;22.760;2022-11-02T07:49:11;99754.75;;;14.69;77.60
58662;BME280;44432;49.786;22.760;2022-11-02T07:51:41;99758.98;;;14.79;77.26
58662;BME280;44432;49.786;22.760;2022-11-02T07:54:12;99759.00;;;14.88;77.27
58662;BME280;44432;49.786;22.760;2022-11-02T07:56:44;99754.06;;;14.99;77.01
58662;BME280;44432;49.786;22.760;2022-11-02T07:59:14;99753.61;;;15.07;76.69
58662;BME280;44432;49.786;22.760;2022-11-02T08:01:45;99756.70;;;15.14;76.26
58662;BME280;44432;49.786;22.760;2022-11-02T08:04:15;99752.42;;;15.20;75.95
58662;BME280;44432;49.786;22.760;2022-11-02T08:06:46;99749.97;;;15.22;75.60
58662;BME280;44432;49.786;22.760;2022-11-02T08:09:16;99748.58;;;15.22;75.43
58662;BME280;44432;49.786;22.760;2022-11-02T08:12:08;99744.21;;;15.24;75.58
58662;BME280;44432;49.786;22.760;2022-11-02T08:14:38;99739.52;;;15.23;75.24
58662;BME280;44432;49.786;22.760;2022-11-02T08:17:09;99739.30;;;15.21;75.03
58662;BME280;44432;49.786;22.760;2022-11-02T08:19:39;99737.94;;;15.17;75.12
58662;BME280;44432;49.786;22.760;2022-11-02T08:22:10;99736.02;;;15.17;75.18
58662;BME280;44432;49.786;22.760;2022-11-02T08:24:41;99732.95;;;15.15;75.05
58662;BME280;44432;49.786;22.760;2022-11-02T08:27:11;99730.52;;;15.18;75.18
58662;BME280;44432;49.786;22.760;2022-11-02T08:29:42;99722.73;;;15.19;74.81
58662;BME280;44432;49.786;22.760;2022-11-02T08:32:12;99727.30;;;15.22;74.80
58662;BME280;44432;49.786;22.760;2022-11-02T08:34:43;99722.19;;;15.24;74.82
58662;BME280;44432;49.786;22.760;2022-11-02T08:37:14;99718.73;;;15.30;74.80
58662;BME280;44432;49.786;22.760;2022-11-02T08:39:44;99718.30;;;15.35;74.54
58662;BME280;44432;49.786;22.760;2022-11-02T08:42:16;99723.17;;;15.40;74.45
58662;BME280;44432;49.786;22.760;2022-11-02T08:44:47;99728.44;;;15.44;74.09
58662;BME280;44432;49.786;22.760;2022-11-02T08:47:17;99723.22;;;15.47;73.86
58662;BME280;44432;49.786;22.760;2022-11-02T08:49:48;99722.52;;;15.51;73.89
58662;BME280;44432;49.786;22.760;2022-11-02T08:52:20;99725.89;;;15.61;74.02
58662;BME280;44432;49.786;22.760;2022-11-02T08:54:51;99723.38;;;15.74;73.64
58662;BME280;44432;49.786;22.760;2022-11-02T08:57:21;99719.48;;;15.87;73.47
58662;BME280;44432;49.786;22.760;2022-11-02T08:59:52;99717.83;;;16.00;72.79
58662;BME280;44432;49.786;22.760;2022-11-02T09:02:23;99719.39;;;16.09;71.83
58662;BME280;44432;49.786;22.760;2022-11-02T09:04:53;99718.96;;;16.20;71.80
58662;BME280;44432;49.786;22.760;2022-11-02T09:07:24;99715.30;;;16.29;71.59
58662;BME280;44432;49.786;22.760;2022-11-02T09:09:55;99718.70;;;16.41;71.13
58662;BME280;44432;49.786;22.760;2022-11-02T09:12:25;99715.38;;;16.52;70.73
58662;BME280;44432;49.786;22.760;2022-11-02T09:14:56;99716.45;;;16.58;69.71
58662;BME280;44432;49.786;22.760;2022-11-02T09:17:26;99713.27;;;16.63;69.32
58662;BME280;44432;49.786;22.760;2022-11-02T09:19:58;99709.61;;;16.67;69.31
58662;BME280;44432;49.786;22.760;2022-11-02T09:22:29;99714.63;;;16.74;69.19
58662;BME280;44432;49.786;22.760;2022-11-02T09:24:59;99712.38;;;16.83;68.85
58662;BME280;44432;49.786;22.760;2022-11-02T09:27:30;99710.33;;;16.88;68.36
58662;BME280;44432;49.786;22.760;2022-11-02T09:30:00;99707.95;;;16.90;68.03
58662;BME280;44432;49.786;22.760;2022-11-02T09:32:31;99713.13;;;16.89;67.74
58662;BME280;44432;49.786;22.760;2022-11-02T09:35:05;99711.65;;;16.94;67.59
58662;BME280;44432;49.786;22.760;2022-11-02T09:37:36;99714.77;;;16.96;66.94
58662;BME280;44432;49.786;22.760;2022-11-02T09:40:08;99717.20;;;16.98;67.06
58662;BME280;44432;49.786;22.760;2022-11-02T09:42:43;99718.73;;;17.00;66.21
58662;BME280;44432;49.786;22.760;2022-11-02T09:52:24;99708.36;;;16.69;64.45
58662;BME280;44432;49.786;22.760;2022-11-02T09:54:58;99717.96;;;16.62;63.79
58662;BME280;44432;49.786;22.760;2022-11-02T09:57:31;99713.05;;;16.56;63.67
58662;BME280;44432;49.786;22.760;2022-11-02T10:00:02;99711.89;;;16.53;63.53
58662;BME280;44432;49.786;22.760;2022-11-02T10:02:46;99711.59;;;16.49;63.24
58662;BME280;44432;49.786;22.760;2022-11-02T10:05:33;99713.27;;;16.44;62.83
58662;BME280;44432;49.786;22.760;2022-11-02T10:08:26;99715.27;;;16.36;62.59
58662;BME280;44432;49.786;22.760;2022-11-02T10:11:10;99711.44;;;16.28;62.55
58662;BME280;44432;49.786;22.760;2022-11-02T10:13:47;99712.82;;;16.20;62.41
58662;BME280;44432;49.786;22.760;2022-11-02T10:16:23;99712.41;;;16.12;61.87
58662;BME280;44432;49.786;22.760;2022-11-02T10:18:55;99712.73;;;16.04;62.53
58662;BME280;44432;49.786;22.760;2022-11-02T10:21:28;99708.33;;;16.01;62.64
58662;BME280;44432;49.786;22.760;2022-11-02T10:24:09;99709.42;;;16.00;63.03
58662;BME280;44432;49.786;22.760;2022-11-02T10:26:40;99712.36;;;16.00;63.24
58662;BME280;44432;49.786;22.760;2022-11-02T10:29:17;99715.51;;;16.01;63.01
58662;BME280;44432;49.786;22.760;2022-11-02T10:31:51;99708.88;;;16.00;62.89
58662;BME280;44432;49.786;22.760;2022-11-02T10:34:24;99705.71;;;16.01;63.53
58662;BME280;44432;49.786;22.760;2022-11-02T10:37:09;99706.27;;;16.02;63.49
58662;BME280;44432;49.786;22.760;2022-11-02T10:39:49;99700.34;;;16.01;63.74
58662;BME280;44432;49.786;22.760;2022-11-02T10:42:34;99702.63;;;16.01;63.81
58662;BME280;44432;49.786;22.760;2022-11-02T10:45:31;99693.39;;;16.00;63.83
58662;BME280;44432;49.786;22.760;2022-11-02T10:48:11;99693.48;;;16.00;64.19
58662;BME280;44432;49.786;22.760;2022-11-02T10:50:50;99693.20;;;16.04;64.10
58662;BME280;44432;49.786;22.760;2022-11-02T10:53:22;99689.42;;;16.04;64.18
58662;BME280;44432;49.786;22.760;2022-11-02T10:55:58;99697.17;;;16.12;64.25
58662;BME280;44432;49.786;22.760;2022-11-02T10:58:32;99695.88;;;16.20;64.04
58662;BME280;44432;49.786;22.760;2022-11-02T11:01:07;99694.89;;;16.29;63.96
58662;BME280;44432;49.786;22.760;2022-11-02T11:03:54;99698.35;;;16.41;63.75
58662;BME280;44432;49.786;22.760;2022-11-02T11:06:27;99694.16;;;16.52;63.95
58662;BME280;44432;49.786;22.760;2022-11-02T11:09:05;99699.91;;;16.64;63.31
58662;BME280;44432;49.786;22.760;2022-11-02T11:11:37;99693.27;;;16.75;62.46
58662;BME280;44432;49.786;22.760;2022-11-02T11:14:16;99692.02;;;16.81;61.20
58662;BME280;44432;49.786;22.760;2022-11-02T11:16:49;99691.36;;;16.83;61.10
58662;BME280;44432;49.786;22.760;2022-11-02T11:19:23;99691.95;;;16.83;60.83
58662;BME280;44432;49.786;22.760;2022-11-02T11:21:57;99694.70;;;16.81;60.71
58662;BME280;44432;49.786;22.760;2022-11-02T11:24:29;99693.98;;;16.76;60.55
58662;BME280;44432;49.786;22.760;2022-11-02T11:27:13;99686.90;;;16.70;60.49
58662;BME280;44432;49.786;22.760;2022-11-02T11:29:50;99682.23;;;16.65;61.04
58662;BME280;44432;49.786;22.760;2022-11-02T11:32:23;99681.48;;;16.64;61.07
58662;BME280;44432;49.786;22.760;2022-11-02T11:34:57;99678.33;;;16.64;61.32
58662;BME280;44432;49.786;22.760;2022-11-02T11:37:28;99677.80;;;16.68;61.22
58662;BME280;44432;49.786;22.760;2022-11-02T11:40:02;99676.21;;;16.72;60.94
58662;BME280;44432;49.786;22.760;2022-11-02T11:42:35;99673.15;;;16.78;61.04
58662;BME280;44432;49.786;22.760;2022-11-02T11:45:13;99672.50;;;16.88;61.05
58662;BME280;44432;49.786;22.760;2022-11-02T11:47:51;99673.04;;;16.99;60.92
58662;BME280;44432;49.786;22.760;2022-11-02T11:50:23;99668.73;;;17.10;60.78
58662;BME280;44432;49.786;22.760;2022-11-02T11:55:52;99671.40;;;17.38;60.11
58662;BME280;44432;49.786;22.760;2022-11-02T11:58:25;99672.53;;;17.43;60.08
58662;BME280;44432;49.786;22.760;2022-11-02T12:01:12;99674.44;;;17.41;60.14
58662;BME280;44432;49.786;22.760;2022-11-02T12:03:53;99671.82;;;17.33;59.96
58662;BME280;44432;49.786;22.760;2022-11-02T12:06:31;99668.91;;;17.23;60.00
58662;BME280;44432;49.786;22.760;2022-11-02T12:09:11;99673.63;;;17.10;59.85
58662;BME280;44432;49.786;22.760;2022-11-02T12:11:55;99672.27;;;16.93;60.05
58662;BME280;44432;49.786;22.760;2022-11-02T12:14:40;99669.77;;;16.83;60.41
58662;BME280;44432;49.786;22.760;2022-11-02T12:17:33;99672.42;;;16.76;60.30
58662;BME280;44432;49.786;22.760;2022-11-02T12:20:23;99679.31;;;16.69;60.38
58662;BME280;44432;49.786;22.760;2022-11-02T12:23:03;99675.30;;;16.69;60.86
58662;BME280;44432;49.786;22.760;2022-11-02T12:25:45;99674.48;;;16.71;60.64
58662;BME280;44432;49.786;22.760;2022-11-02T12:28:30;99671.30;;;16.69;60.47
58662;BME280;44432;49.786;22.760;2022-11-02T12:31:16;99660.71;;;16.67;60.71
58662;BME280;44432;49.786;22.760;2022-11-02T12:34:02;99658.71;;;16.68;60.71
58662;BME280;44432;49.786;22.760;2022-11-02T12:36:47;99660.91;;;16.79;61.13
58662;BME280;44432;49.786;22.760;2022-11-02T12:39:29;99662.80;;;16.92;60.86
58662;BME280;44432;49.786;22.760;2022-11-02T12:42:13;99660.16;;;17.01;60.49
58662;BME280;44432;49.786;22.760;2022-11-02T12:45:09;99660.86;;;17.09;60.21
58662;BME280;44432;49.786;22.760;2022-11-02T12:47:55;99661.84;;;17.21;60.00
58662;BME280;44432;49.786;22.760;2022-11-02T12:50:36;99667.48;;;17.28;59.40
58662;BME280;44432;49.786;22.760;2022-11-02T12:53:24;99667.89;;;17.30;59.63
58662;BME280;44432;49.786;22.760;2022-11-02T12:55:59;99667.99;;;17.35;59.79
58662;BME280;44432;49.786;22.760;2022-11-02T12:58:31;99664.88;;;17.41;59.90
58662;BME280;44432;49.786;22.760;2022-11-02T13:01:08;99665.83;;;17.49;60.09
58662;BME280;44432;49.786;22.760;2022-11-02T13:03:47;99669.73;;;17.52;59.50
58662;BME280;44432;49.786;22.760;2022-11-02T13:06:25;99667.14;;;17.46;59.03
58662;BME280;44432;49.786;22.760;2022-11-02T13:09:03;99666.19;;;17.39;59.33
58662;BME280;44432;49.786;22.760;2022-11-02T13:11:40;99666.39;;;17.30;59.22
58662;BME280;44432;49.786;22.760;2022-11-02T13:14:14;99666.43;;;17.25;59.55
58662;BME280;44432;49.786;22.760;2022-11-02T13:16:49;99666.30;;;17.24;59.75
58662;BME280;44432;49.786;22.760;2022-11-02T13:19:29;99662.49;;;17.22;59.72
58662;BME280;44432;49.786;22.760;2022-11-02T13:22:04;99658.48;;;17.22;60.01
58662;BME280;44432;49.786;22.760;2022-11-02T13:24:41;99660.85;;;17.27;60.05
58662;BME280;44432;49.786;22.760;2022-11-02T13:27:26;99661.73;;;17.25;59.64
58662;BME280;44432;49.786;22.760;2022-11-02T13:30:01;99660.89;;;17.21;59.96
58662;BME280;44432;49.786;22.760;2022-11-02T13:32:36;99665.53;;;17.18;59.77
58662;BME280;44432;49.786;22.760;2022-11-02T13:35:17;99670.21;;;17.02;59.44
58662;BME280;44432;49.786;22.760;2022-11-02T13:37:53;99670.63;;;16.84;59.89